createdAt,value
2022-09-25T00:01:13.886Z,21.80
2022-09-25T00:03:49.531Z,21.30
2022-09-25T00:06:22.448Z,22.50
2022-09-25T00:08:50.323Z,22.80
2022-09-25T00:11:20.813Z,21.60
2022-09-25T00:13:48.791Z,24.30
2022-09-25T00:16:19.425Z,23.20
2022-09-25T00:19:05.605Z,24.50
2022-09-25T00:21:33.438Z,22.30
2022-09-25T00:24:03.355Z,22.70
2022-09-25T00:26:33.541Z,20.80
2022-09-25T00:29:00.999Z,20.90
2022-09-25T00:31:29.261Z,22.50
2022-09-25T00:33:58.366Z,21.90
2022-09-25T00:36:26.273Z,21.70
2022-09-25T00:38:54.168Z,21.20
2022-09-25T00:41:23.412Z,21.60
2022-09-25T00:43:53.181Z,21.70
2022-09-25T00:46:22.425Z,22.30
2022-09-25T00:49:08.075Z,21.60
2022-09-25T00:51:46.455Z,21.20
2022-09-25T00:54:17.708Z,21.00
2022-09-25T00:56:48.539Z,19.80
2022-09-25T00:59:22.592Z,21.90
2022-09-25T01:01:49.817Z,22.10
2022-09-25T01:04:19.534Z,21.80
2022-09-25T01:06:46.622Z,21.50
2022-09-25T01:09:13.601Z,20.60
2022-09-25T01:11:40.565Z,21.40
2022-09-25T01:14:09.670Z,21.80
2022-09-25T01:16:50.863Z,21.90
2022-09-25T01:20:03.245Z,23.40
2022-09-25T01:22:55.604Z,22.00
2022-09-25T01:25:57.634Z,20.50
2022-09-25T01:28:49.972Z,20.80
2022-09-25T01:31:38.210Z,21.90
2022-09-25T01:34:50.778Z,22.40
2022-09-25T01:37:29.546Z,20.60
2022-09-25T01:40:28.743Z,20.10
2022-09-25T01:43:09.524Z,19.80
2022-09-25T01:48:10.361Z,19.80
2022-09-25T01:50:47.511Z,19.50
2022-09-25T01:53:20.380Z,19.70
2022-09-25T01:55:52.570Z,20.80
2022-09-25T01:58:33.949Z,20.40
2022-09-25T02:01:15.573Z,21.10
2022-09-25T02:03:56.931Z,20.10
2022-09-25T02:06:25.078Z,18.50
2022-09-25T02:09:00.828Z,20.10
2022-09-25T02:11:35.204Z,20.30
2022-09-25T02:14:08.530Z,20.80
2022-09-25T02:16:43.186Z,19.60
2022-09-25T02:19:32.353Z,19.80
2022-09-25T02:21:59.483Z,20.20
2022-09-25T02:24:41.302Z,19.70
2022-09-25T02:27:08.290Z,21.10
2022-09-25T02:29:35.276Z,21.10
2022-09-25T02:32:08.010Z,20.20
2022-09-25T02:34:36.334Z,19.50
2022-09-25T02:37:09.761Z,19.60
2022-09-25T02:39:36.722Z,22.40
2022-09-25T02:42:25.421Z,21.40
2022-09-25T02:45:17.573Z,22.70
2022-09-25T02:47:51.564Z,23.60
2022-09-25T02:50:43.199Z,23.50
2022-09-25T02:53:38.450Z,25.00
2022-09-25T02:56:20.584Z,24.90
2022-09-25T02:59:02.069Z,25.20
2022-09-25T03:01:34.758Z,25.10
2022-09-25T03:04:04.938Z,25.60
2022-09-25T03:06:32.523Z,24.60
2022-09-25T03:09:01.507Z,26.50
2022-09-25T03:11:29.124Z,26.30
2022-09-25T03:14:01.840Z,26.20
2022-09-25T03:16:45.636Z,26.20
2022-09-25T03:19:13.734Z,26.00
2022-09-25T03:21:41.023Z,25.10
2022-09-25T03:24:09.550Z,25.60
2022-09-25T03:26:36.626Z,26.90
2022-09-25T03:29:03.942Z,26.90
2022-09-25T03:31:32.215Z,27.60
2022-09-25T03:34:00.141Z,25.20
2022-09-25T03:36:29.315Z,25.40
2022-09-25T03:38:58.526Z,25.70
2022-09-25T03:41:28.667Z,25.80
2022-09-25T03:43:56.419Z,25.00
2022-09-25T03:46:26.599Z,26.80
2022-09-25T03:48:54.934Z,24.60
2022-09-25T03:51:23.149Z,24.70
2022-09-25T03:53:51.279Z,24.60
2022-09-25T03:56:21.087Z,26.00
2022-09-25T03:58:49.872Z,26.40
2022-09-25T04:01:19.017Z,25.70
2022-09-25T04:03:47.026Z,24.80
2022-09-25T04:06:17.897Z,23.40
2022-09-25T04:08:46.071Z,25.30
2022-09-25T04:11:15.143Z,24.90
2022-09-25T04:13:43.677Z,24.70
2022-09-25T04:16:12.617Z,26.20
2022-09-25T04:18:41.351Z,26.60
2022-09-25T04:21:10.706Z,25.00
2022-09-25T04:23:38.393Z,25.60
2022-09-25T04:26:06.270Z,25.40
2022-09-25T04:28:33.673Z,25.30
2022-09-25T04:31:02.151Z,25.70
2022-09-25T04:33:48.258Z,23.60
2022-09-25T04:36:18.624Z,23.00
2022-09-25T04:38:46.730Z,24.30
2022-09-25T04:41:19.632Z,24.60
2022-09-25T04:43:47.307Z,24.80
2022-09-25T04:46:21.119Z,25.10
2022-09-25T04:48:49.711Z,24.30
2022-09-25T04:51:16.748Z,22.70
2022-09-25T04:53:43.671Z,23.10
2022-09-25T04:56:15.823Z,24.60
2022-09-25T04:58:49.119Z,23.40
2022-09-25T05:01:18.708Z,23.80
2022-09-25T05:03:49.772Z,22.70
2022-09-25T05:06:16.827Z,23.80
2022-09-25T05:08:43.789Z,22.40
2022-09-25T05:11:11.269Z,24.30
2022-09-25T05:13:40.940Z,24.20
2022-09-25T05:16:08.990Z,24.10
2022-09-25T05:18:41.344Z,24.40
2022-09-25T05:21:09.712Z,23.60
2022-09-25T05:23:36.793Z,23.60
2022-09-25T05:26:06.870Z,24.40
2022-09-25T05:28:34.172Z,26.10
2022-09-25T05:31:03.211Z,25.80
2022-09-25T05:33:32.462Z,25.00
2022-09-25T05:36:07.189Z,24.10
2022-09-25T05:38:39.758Z,23.90
2022-09-25T05:41:10.628Z,23.60
2022-09-25T05:43:44.083Z,26.90
2022-09-25T05:46:13.027Z,27.30
2022-09-25T05:48:40.529Z,27.40
2022-09-25T05:51:08.622Z,25.80
2022-09-25T05:53:36.516Z,26.10
2022-09-25T05:56:05.323Z,27.20
2022-09-25T05:58:35.294Z,27.50
2022-09-25T06:01:07.952Z,28.10
2022-09-25T06:03:35.702Z,27.10
2022-09-25T06:06:03.914Z,26.30
2022-09-25T06:08:31.656Z,25.40
2022-09-25T06:11:00.939Z,25.40
2022-09-25T06:13:31.606Z,26.50
2022-09-25T06:15:58.841Z,27.90
2022-09-25T06:18:26.473Z,28.90
2022-09-25T06:21:01.255Z,28.80
2022-09-25T06:23:29.026Z,30.20
2022-09-25T06:26:03.219Z,24.90
2022-09-25T06:28:32.421Z,24.00
2022-09-25T06:31:01.436Z,25.00
2022-09-25T06:33:28.648Z,24.90
2022-09-25T06:35:55.697Z,25.60
2022-09-25T06:38:22.726Z,25.10
2022-09-25T06:40:50.054Z,24.00
2022-09-25T06:43:17.399Z,24.10
2022-09-25T06:45:44.459Z,24.50
2022-09-25T06:48:13.379Z,25.10
2022-09-25T06:50:46.695Z,26.40
2022-09-25T06:53:15.748Z,25.40
2022-09-25T06:55:46.996Z,25.50
2022-09-25T06:58:17.561Z,25.70
2022-09-25T07:00:51.333Z,25.00
2022-09-25T07:03:37.873Z,23.80
2022-09-25T07:06:07.919Z,24.20
2022-09-25T07:08:36.446Z,24.30
2022-09-25T07:11:04.210Z,26.00
2022-09-25T07:13:34.903Z,24.90
2022-09-25T07:16:07.649Z,23.80
2022-09-25T07:18:34.946Z,23.80
2022-09-25T07:21:08.016Z,24.10
2022-09-25T07:23:35.884Z,23.90
2022-09-25T07:26:10.590Z,24.80
2022-09-25T07:28:40.634Z,24.80
2022-09-25T07:31:22.924Z,25.50
2022-09-25T07:33:50.258Z,25.40
2022-09-25T07:36:18.180Z,24.60
2022-09-25T07:38:53.668Z,24.90
2022-09-25T07:41:22.433Z,23.90
2022-09-25T07:44:11.915Z,23.80
2022-09-25T07:46:45.491Z,25.20
2022-09-25T07:49:12.657Z,24.10
2022-09-25T07:51:39.682Z,24.50
2022-09-25T07:54:07.596Z,25.50
2022-09-25T07:56:34.826Z,24.50
2022-09-25T07:59:02.586Z,24.30
2022-09-25T08:01:29.656Z,25.10
2022-09-25T08:03:56.921Z,25.90
2022-09-25T08:06:24.183Z,27.10
2022-09-25T08:08:51.200Z,25.70
2022-09-25T08:11:18.375Z,25.60
2022-09-25T08:13:45.929Z,24.00
2022-09-25T08:16:18.641Z,25.40
2022-09-25T08:18:47.067Z,24.90
2022-09-25T08:21:16.714Z,26.40
2022-09-25T08:23:49.210Z,26.40
2022-09-25T08:26:23.228Z,27.40
2022-09-25T08:28:53.446Z,26.50
2022-09-25T08:31:21.859Z,24.60
2022-09-25T08:33:50.329Z,24.00
2022-09-25T08:36:18.124Z,26.10
2022-09-25T08:38:45.237Z,25.00
2022-09-25T08:41:18.623Z,27.50
2022-09-25T08:44:09.818Z,25.20
2022-09-25T08:47:09.015Z,25.90
2022-09-25T08:49:45.214Z,26.10
2022-09-25T08:52:21.857Z,24.80
2022-09-25T08:54:54.646Z,23.90
2022-09-25T08:57:43.697Z,23.60
2022-09-25T09:00:22.569Z,25.20
2022-09-25T09:02:55.353Z,22.80
2022-09-25T09:05:40.733Z,22.70
2022-09-25T09:08:14.179Z,22.70
2022-09-25T09:11:10.006Z,23.20
2022-09-25T09:13:54.755Z,22.50
2022-09-25T09:16:21.795Z,21.80
2022-09-25T09:18:57.156Z,20.20
2022-09-25T09:21:46.730Z,20.00
2022-09-25T09:24:35.042Z,21.60
2022-09-25T09:27:24.378Z,22.30
2022-09-25T09:30:20.278Z,22.10
2022-09-25T09:33:17.522Z,22.10
2022-09-25T09:35:47.914Z,21.40
2022-09-25T09:38:28.205Z,21.30
2022-09-25T09:41:05.043Z,19.00
2022-09-25T09:43:57.640Z,19.60
2022-09-25T09:46:28.287Z,18.10
2022-09-25T09:49:34.937Z,18.40
2022-09-25T09:52:11.051Z,19.50
2022-09-25T09:54:52.712Z,18.40
2022-09-25T09:57:32.877Z,18.00
2022-09-25T10:00:11.873Z,16.90
2022-09-25T10:03:01.886Z,18.10
2022-09-25T10:05:35.104Z,17.00
2022-09-25T10:08:02.387Z,17.10
2022-09-25T10:10:36.903Z,16.70
2022-09-25T10:13:11.060Z,17.10
2022-09-25T10:16:04.525Z,15.90
2022-09-25T10:18:40.557Z,15.90
2022-09-25T10:21:18.085Z,16.40
2022-09-25T10:23:50.697Z,16.10
2022-09-25T10:26:29.887Z,13.70
2022-09-25T10:29:02.171Z,15.20
2022-09-25T10:31:33.283Z,14.60
2022-09-25T10:34:05.904Z,13.40
2022-09-25T10:36:42.868Z,14.00
2022-09-25T10:39:49.178Z,12.80
2022-09-25T10:42:40.524Z,12.90
2022-09-25T10:45:40.427Z,12.00
2022-09-25T10:48:44.213Z,12.20
2022-09-25T10:51:12.168Z,10.20
2022-09-25T10:53:39.172Z,10.40
2022-09-25T10:56:12.551Z,10.40
2022-09-25T10:58:52.490Z,8.90
2022-09-25T11:01:19.787Z,9.30
2022-09-25T11:03:51.063Z,11.00
2022-09-25T11:06:25.944Z,11.10
2022-09-25T11:09:12.494Z,10.10
2022-09-25T11:11:40.698Z,10.00
2022-09-25T11:14:18.926Z,9.60
2022-09-25T11:16:52.506Z,8.00
2022-09-25T11:19:30.837Z,9.80
2022-09-25T11:22:16.068Z,10.30
2022-09-25T11:25:11.421Z,10.40
2022-09-25T11:27:53.042Z,10.40
2022-09-25T11:30:22.248Z,7.80
2022-09-25T11:33:15.264Z,6.80
2022-09-25T11:35:52.773Z,6.00
2022-09-25T11:38:59.862Z,5.80
2022-09-25T11:41:38.393Z,5.50
2022-09-25T11:44:32.495Z,6.20
2022-09-25T11:47:33.653Z,6.10
2022-09-25T11:50:01.762Z,5.80
2022-09-25T11:52:47.786Z,6.00
2022-09-25T11:55:34.329Z,6.50
2022-09-25T11:58:20.352Z,6.60
2022-09-25T12:01:18.471Z,7.20
2022-09-25T12:04:20.483Z,7.50
2022-09-25T12:06:54.681Z,8.00
2022-09-25T12:09:43.466Z,7.70
2022-09-25T12:12:30.920Z,7.90
2022-09-25T12:15:27.511Z,7.70
2022-09-25T12:18:22.979Z,7.50
2022-09-25T12:21:03.693Z,6.80
2022-09-25T12:23:58.685Z,8.00
2022-09-25T12:26:44.623Z,7.10
2022-09-25T12:29:28.644Z,8.30
2022-09-25T12:32:28.215Z,9.00
2022-09-25T12:35:28.728Z,8.80
2022-09-25T12:38:05.187Z,8.90
2022-09-25T12:40:59.036Z,8.30
2022-09-25T12:43:52.090Z,8.60
2022-09-25T12:46:42.120Z,8.80
2022-09-25T12:49:12.085Z,8.90
2022-09-25T12:51:43.280Z,8.20
2022-09-25T12:54:25.885Z,8.10
2022-09-25T12:57:13.619Z,8.20
2022-09-25T12:59:51.978Z,8.10
2022-09-25T13:03:00.485Z,8.00
2022-09-25T13:05:34.728Z,8.40
2022-09-25T13:08:44.749Z,8.60
2022-09-25T13:11:38.679Z,8.70
2022-09-25T13:14:32.470Z,9.20
2022-09-25T13:17:00.926Z,7.70
2022-09-25T13:19:32.743Z,7.50
2022-09-25T13:22:20.317Z,8.10
2022-09-25T13:25:13.887Z,7.60
2022-09-25T13:27:46.280Z,7.80
2022-09-25T13:30:25.941Z,7.50
2022-09-25T13:32:55.916Z,8.00
2022-09-25T13:35:23.719Z,7.90
2022-09-25T13:37:54.749Z,8.30
2022-09-25T13:40:42.332Z,7.30
2022-09-25T13:43:27.712Z,7.70
2022-09-25T13:46:17.414Z,7.00
2022-09-25T13:48:44.592Z,7.30
2022-09-25T13:51:17.925Z,7.00
2022-09-25T13:53:58.590Z,7.50
2022-09-25T13:56:41.082Z,7.30
2022-09-25T13:59:14.610Z,7.10
2022-09-25T14:01:46.719Z,7.30
2022-09-25T14:04:13.759Z,7.20
2022-09-25T14:06:42.732Z,7.40
2022-09-25T14:09:19.450Z,7.30
2022-09-25T14:12:02.496Z,7.40
2022-09-25T14:14:52.375Z,7.80
2022-09-25T14:17:21.985Z,7.50
2022-09-25T14:19:52.520Z,7.90
2022-09-25T14:22:29.178Z,6.90
2022-09-25T14:24:56.265Z,8.70
2022-09-25T14:27:27.391Z,7.20
2022-09-25T14:30:13.609Z,7.30
2022-09-25T14:32:59.948Z,7.20
2022-09-25T14:35:42.174Z,7.10
2022-09-25T14:38:48.098Z,7.20
2022-09-25T14:41:22.537Z,6.90
2022-09-25T14:44:25.247Z,7.70
2022-09-25T14:46:56.758Z,7.10
2022-09-25T14:49:38.247Z,7.50
2022-09-25T14:52:14.640Z,7.80
2022-09-25T14:54:45.973Z,7.80
2022-09-25T14:57:20.793Z,8.00
2022-09-25T14:59:56.090Z,7.90
2022-09-25T15:02:40.045Z,8.10
2022-09-25T15:05:32.742Z,8.50
2022-09-25T15:08:02.038Z,7.80
2022-09-25T15:10:38.527Z,8.00
2022-09-25T15:13:20.292Z,8.40
2022-09-25T15:16:12.717Z,8.40
2022-09-25T15:18:42.211Z,8.40
2022-09-25T15:21:21.188Z,8.50
2022-09-25T15:23:48.257Z,8.00
2022-09-25T15:26:18.403Z,8.40
2022-09-25T15:28:45.895Z,8.20
2022-09-25T15:31:13.617Z,8.20
2022-09-25T15:33:41.627Z,8.90
2022-09-25T15:36:16.868Z,9.60
2022-09-25T15:38:44.239Z,9.10
2022-09-25T15:41:15.549Z,9.60
2022-09-25T15:43:42.839Z,9.50
2022-09-25T15:46:09.775Z,10.20
2022-09-25T15:49:08.240Z,9.40
2022-09-25T15:51:36.163Z,9.30
2022-09-25T15:54:18.573Z,9.80
2022-09-25T15:56:50.725Z,9.40
2022-09-25T15:59:30.460Z,10.50
2022-09-25T16:02:16.914Z,10.40
2022-09-25T16:04:51.391Z,9.70
2022-09-25T16:07:28.543Z,9.50
2022-09-25T16:09:58.844Z,9.30
2022-09-25T16:12:26.299Z,9.80
2022-09-25T16:14:54.862Z,10.00
2022-09-25T16:17:22.373Z,10.10
2022-09-25T16:20:06.514Z,10.10
2022-09-25T16:22:45.349Z,9.50
2022-09-25T16:25:20.714Z,9.70
2022-09-25T16:27:48.147Z,10.00
2022-09-25T16:30:23.758Z,9.80
2022-09-25T16:32:55.808Z,10.10
2022-09-25T16:36:08.230Z,10.00
2022-09-25T16:38:34.662Z,9.70
2022-09-25T16:41:11.788Z,10.60
2022-09-25T16:43:39.354Z,10.40
2022-09-25T16:46:25.265Z,9.90
2022-09-25T16:49:00.674Z,10.30
2022-09-25T16:51:29.781Z,10.50
2022-09-25T16:54:00.515Z,10.10
2022-09-25T16:56:30.345Z,11.10
2022-09-25T16:58:58.809Z,9.90
2022-09-25T17:01:27.787Z,11.30
2022-09-25T17:03:59.281Z,10.80
2022-09-25T17:06:29.937Z,12.00
2022-09-25T17:08:59.678Z,12.40
2022-09-25T17:11:27.021Z,15.90
2022-09-25T17:13:54.153Z,15.20
2022-09-25T17:16:21.287Z,17.90
2022-09-25T17:18:48.445Z,17.40
2022-09-25T17:21:16.286Z,17.80
2022-09-25T17:23:44.155Z,20.70
2022-09-25T17:26:19.983Z,23.00
2022-09-25T17:28:47.507Z,20.80
2022-09-25T17:31:19.730Z,22.50
2022-09-25T17:33:49.666Z,22.40
2022-09-25T17:36:16.940Z,20.00
2022-09-25T17:38:44.156Z,19.70
2022-09-25T17:41:40.971Z,18.50
2022-09-25T17:44:15.904Z,17.40
2022-09-25T17:47:03.494Z,16.70
2022-09-25T17:49:30.692Z,17.70
2022-09-25T17:51:58.291Z,17.80
2022-09-25T17:54:29.603Z,18.30
2022-09-25T17:56:57.060Z,17.00
2022-09-25T17:59:26.108Z,16.40
2022-09-25T18:01:53.316Z,17.30
2022-09-25T18:04:24.901Z,17.60
2022-09-25T18:06:52.519Z,18.50
2022-09-25T18:09:27.508Z,17.70
2022-09-25T18:11:56.054Z,17.90
2022-09-25T18:14:23.848Z,58.50
2022-09-25T18:16:50.871Z,38.10
2022-09-25T18:19:38.540Z,49.60
2022-09-25T18:22:21.255Z,43.50
2022-09-25T18:24:58.813Z,42.70
2022-09-25T18:27:31.940Z,36.20
2022-09-25T18:30:00.330Z,32.20
2022-09-25T18:32:27.993Z,29.00
2022-09-25T18:34:55.975Z,28.10
2022-09-25T18:37:23.164Z,26.90
2022-09-25T18:39:50.736Z,27.10
2022-09-25T18:42:18.073Z,28.10
2022-09-25T18:44:45.117Z,32.70
2022-09-25T18:47:13.420Z,32.10
2022-09-25T18:49:40.528Z,33.30
2022-09-25T18:52:07.887Z,32.70
2022-09-25T18:54:34.978Z,30.10
2022-09-25T18:57:02.440Z,28.80
2022-09-25T18:59:30.106Z,27.90
2022-09-25T19:02:00.182Z,26.00
2022-09-25T19:04:28.305Z,24.20
2022-09-25T19:06:55.788Z,24.00
2022-09-25T19:09:26.076Z,21.80
2022-09-25T19:11:55.153Z,21.60
2022-09-25T19:14:23.830Z,22.00
2022-09-25T19:16:52.762Z,20.60
2022-09-25T19:19:20.227Z,21.20
2022-09-25T19:21:47.704Z,20.30
2022-09-25T19:24:17.746Z,19.90
2022-09-25T19:29:13.275Z,20.00
2022-09-25T19:31:40.906Z,18.80
2022-09-25T19:34:08.829Z,20.10
2022-09-25T19:36:36.524Z,27.20
2022-09-25T19:39:05.212Z,25.80
2022-09-25T19:41:35.563Z,27.00
2022-09-25T19:44:12.376Z,28.10
2022-09-25T19:46:45.724Z,23.20
2022-09-25T19:49:15.564Z,25.10
2022-09-25T19:51:43.179Z,24.10
2022-09-25T19:54:13.713Z,24.20
2022-09-25T19:56:41.937Z,26.70
2022-09-25T19:59:15.904Z,25.20
2022-09-25T20:01:44.037Z,22.50
2022-09-25T20:04:19.074Z,23.20
2022-09-25T20:06:49.835Z,23.00
2022-09-25T20:09:17.339Z,24.70
2022-09-25T20:11:46.194Z,25.40
2022-09-25T20:14:14.032Z,27.20
2022-09-25T20:16:41.508Z,26.70
2022-09-25T20:19:09.657Z,27.90
2022-09-25T20:21:38.633Z,27.40
2022-09-25T20:24:07.659Z,27.10
2022-09-25T20:26:35.987Z,27.90
2022-09-25T20:29:12.505Z,26.10
2022-09-25T20:31:42.668Z,25.00
2022-09-25T20:34:15.369Z,26.30
2022-09-25T20:36:43.542Z,27.10
2022-09-25T20:39:19.784Z,26.30
2022-09-25T20:41:48.980Z,26.90
2022-09-25T20:44:16.250Z,25.10
2022-09-25T20:46:43.205Z,25.10
2022-09-25T20:49:10.729Z,28.70
2022-09-25T20:51:37.880Z,26.20
2022-09-25T20:54:09.674Z,27.30
2022-09-25T20:56:38.623Z,27.20
2022-09-25T20:59:05.826Z,27.10
2022-09-25T21:01:36.147Z,25.40
2022-09-25T21:04:05.344Z,27.30
2022-09-25T21:06:34.295Z,27.00
2022-09-25T21:09:05.851Z,28.20
2022-09-25T21:11:33.383Z,27.00
2022-09-25T21:14:02.197Z,26.60
2022-09-25T21:16:32.614Z,26.60
2022-09-25T21:19:03.757Z,27.40
2022-09-25T21:21:33.201Z,27.60
2022-09-25T21:24:01.906Z,27.00
2022-09-25T21:26:30.826Z,23.80
2022-09-25T21:29:00.570Z,27.10
2022-09-25T21:31:41.062Z,27.50
2022-09-25T21:34:11.790Z,27.30
2022-09-25T21:36:38.802Z,27.10
2022-09-25T21:39:06.845Z,27.20
2022-09-25T21:41:34.233Z,27.10
2022-09-25T21:44:07.524Z,27.90
2022-09-25T21:46:34.739Z,27.70
2022-09-25T21:49:04.877Z,29.80
2022-09-25T21:51:38.643Z,26.90
2022-09-25T21:54:07.793Z,26.80
2022-09-25T21:56:35.536Z,29.20
2022-09-25T21:59:08.156Z,29.70
2022-09-25T22:01:39.704Z,28.70
2022-09-25T22:04:10.699Z,30.00
2022-09-25T22:06:41.298Z,29.00
2022-09-25T22:09:17.784Z,27.90
2022-09-25T22:11:46.224Z,30.80
2022-09-25T22:14:16.320Z,31.10
2022-09-25T22:16:46.284Z,29.90
2022-09-25T22:19:19.022Z,33.00
2022-09-25T22:21:48.558Z,30.90
2022-09-25T22:24:16.587Z,32.40
2022-09-25T22:26:45.438Z,32.40
2022-09-25T22:29:13.891Z,33.60
2022-09-25T22:31:43.712Z,33.00
2022-09-25T22:34:29.596Z,31.40
2022-09-25T22:36:59.917Z,29.20
2022-09-25T22:39:29.302Z,32.40
2022-09-25T22:41:56.474Z,32.20
2022-09-25T22:44:23.889Z,31.80
2022-09-25T22:46:51.581Z,31.40
2022-09-25T22:49:18.551Z,30.20
2022-09-25T22:51:45.641Z,29.10
2022-09-25T22:54:14.092Z,29.90
2022-09-25T22:56:42.106Z,30.80
2022-09-25T22:59:12.489Z,29.90
2022-09-25T23:01:44.564Z,29.80
2022-09-25T23:04:14.665Z,29.10
2022-09-25T23:06:41.676Z,29.80
2022-09-25T23:09:13.728Z,30.00
2022-09-25T23:11:41.481Z,29.60
2022-09-25T23:14:16.510Z,27.50
2022-09-25T23:16:45.017Z,26.50
2022-09-25T23:19:12.545Z,27.30
2022-09-25T23:21:40.121Z,27.10
2022-09-25T23:24:10.590Z,27.10
2022-09-25T23:26:38.117Z,26.50
2022-09-25T23:29:05.251Z,25.40
2022-09-25T23:31:33.337Z,26.60
2022-09-25T23:34:01.636Z,24.50
2022-09-25T23:36:30.130Z,25.60
2022-09-25T23:38:59.902Z,26.30
2022-09-25T23:43:55.463Z,24.70
2022-09-25T23:46:25.210Z,23.90
2022-09-25T23:48:52.837Z,23.90
2022-09-25T23:51:22.412Z,24.70
2022-09-25T23:53:49.835Z,23.10
2022-09-25T23:56:19.513Z,22.60
2022-09-25T23:58:47.680Z,23.00
